sensor_id;sensor_type;location;lat;lon;timestamp;P1;durP1;ratioP1;P2;durP2;ratioP2
28625;SDS011;18905;42.668;23.364;2023-09-19T00:02:00;9.85;;;5.13;;
28625;SDS011;18905;42.668;23.364;2023-09-19T00:04:26;8.98;;;5.10;;
28625;SDS011;18905;42.668;23.364;2023-09-19T00:06:54;6.25;;;4.45;;
28625;SDS011;18905;42.668;23.364;2023-09-19T00:09:19;8.18;;;5.10;;
28625;SDS011;18905;42.668;23.364;2023-09-19T00:11:45;11.82;;;4.55;;
28625;SDS011;18905;42.668;23.364;2023-09-19T00:14:12;10.63;;;5.07;;
28625;SDS011;18905;42.668;23.364;2023-09-19T00:16:39;5.85;;;4.53;;
28625;SDS011;18905;42.668;23.364;2023-09-19T00:19:06;13.20;;;4.78;;
28625;SDS011;18905;42.668;23.364;2023-09-19T00:21:32;7.40;;;4.60;;
28625;SDS011;18905;42.668;23.364;2023-09-19T00:23:58;7.80;;;4.80;;
28625;SDS011;18905;42.668;23.364;2023-09-19T00:26:23;13.98;;;4.40;;
28625;SDS011;18905;42.668;23.364;2023-09-19T00:28:51;9.65;;;4.88;;
28625;SDS011;18905;42.668;23.364;2023-09-19T00:31:17;9.48;;;4.78;;
28625;SDS011;18905;42.668;23.364;2023-09-19T00:33:43;6.72;;;4.53;;
28625;SDS011;18905;42.668;23.364;2023-09-19T00:36:08;7.85;;;4.25;;
28625;SDS011;18905;42.668;23.364;2023-09-19T00:38:34;7.70;;;4.55;;
28625;SDS011;18905;42.668;23.364;2023-09-19T00:40:59;5.57;;;4.20;;
28625;SDS011;18905;42.668;23.364;2023-09-19T00:43:28;10.07;;;5.10;;
28625;SDS011;18905;42.668;23.364;2023-09-19T00:45:55;7.57;;;4.85;;
28625;SDS011;18905;42.668;23.364;2023-09-19T00:48:25;9.98;;;4.80;;
28625;SDS011;18905;42.668;23.364;2023-09-19T00:50:53;7.65;;;4.75;;
28625;SDS011;18905;42.668;23.364;2023-09-19T00:53:23;8.75;;;4.82;;
28625;SDS011;18905;42.668;23.364;2023-09-19T00:55:50;6.97;;;4.90;;
28625;SDS011;18905;42.668;23.364;2023-09-19T00:58:17;13.27;;;4.88;;
28625;SDS011;18905;42.668;23.364;2023-09-19T01:00:43;7.75;;;5.07;;
28625;SDS011;18905;42.668;23.364;2023-09-19T01:03:10;8.68;;;5.18;;
28625;SDS011;18905;42.668;23.364;2023-09-19T01:05:35;11.45;;;4.70;;
28625;SDS011;18905;42.668;23.364;2023-09-19T01:08:01;13.40;;;4.57;;
28625;SDS011;18905;42.668;23.364;2023-09-19T01:10:26;8.38;;;5.15;;
28625;SDS011;18905;42.668;23.364;2023-09-19T01:18:52;8.00;;;4.70;;
28625;SDS011;18905;42.668;23.364;2023-09-19T01:29:17;8.65;;;5.28;;
28625;SDS011;18905;42.668;23.364;2023-09-19T01:31:49;7.22;;;5.65;;
28625;SDS011;18905;42.668;23.364;2023-09-19T01:34:19;10.13;;;5.55;;
28625;SDS011;18905;42.668;23.364;2023-09-19T01:36:45;9.10;;;5.13;;
28625;SDS011;18905;42.668;23.364;2023-09-19T01:39:11;11.90;;;5.43;;
28625;SDS011;18905;42.668;23.364;2023-09-19T01:44:03;12.65;;;6.07;;
28625;SDS011;18905;42.668;23.364;2023-09-19T01:46:34;13.52;;;5.13;;
28625;SDS011;18905;42.668;23.364;2023-09-19T01:54:12;8.68;;;5.65;;
28625;SDS011;18905;42.668;23.364;2023-09-19T01:56:46;10.80;;;6.00;;
28625;SDS011;18905;42.668;23.364;2023-09-19T01:59:17;8.85;;;5.63;;
28625;SDS011;18905;42.668;23.364;2023-09-19T02:01:52;11.85;;;5.93;;
28625;SDS011;18905;42.668;23.364;2023-09-19T02:04:20;7.40;;;5.45;;
28625;SDS011;18905;42.668;23.364;2023-09-19T02:06:45;10.25;;;5.78;;
28625;SDS011;18905;42.668;23.364;2023-09-19T02:09:12;9.10;;;5.15;;
28625;SDS011;18905;42.668;23.364;2023-09-19T02:11:39;9.93;;;5.45;;
28625;SDS011;18905;42.668;23.364;2023-09-19T02:14:06;16.55;;;5.60;;
28625;SDS011;18905;42.668;23.364;2023-09-19T02:16:33;12.43;;;5.38;;
28625;SDS011;18905;42.668;23.364;2023-09-19T02:18:59;10.02;;;5.80;;
28625;SDS011;18905;42.668;23.364;2023-09-19T02:21:25;7.85;;;5.10;;
28625;SDS011;18905;42.668;23.364;2023-09-19T02:23:54;9.70;;;5.35;;
28625;SDS011;18905;42.668;23.364;2023-09-19T02:26:20;9.13;;;5.30;;
28625;SDS011;18905;42.668;23.364;2023-09-19T02:28:45;11.98;;;5.60;;
28625;SDS011;18905;42.668;23.364;2023-09-19T02:31:11;12.15;;;6.00;;
28625;SDS011;18905;42.668;23.364;2023-09-19T02:33:36;11.25;;;5.90;;
28625;SDS011;18905;42.668;23.364;2023-09-19T02:36:02;10.73;;;6.10;;
28625;SDS011;18905;42.668;23.364;2023-09-19T02:38:28;9.00;;;5.45;;
28625;SDS011;18905;42.668;23.364;2023-09-19T02:40:54;9.10;;;6.00;;
28625;SDS011;18905;42.668;23.364;2023-09-19T02:43:21;9.45;;;5.90;;
28625;SDS011;18905;42.668;23.364;2023-09-19T02:45:47;11.90;;;5.80;;
28625;SDS011;18905;42.668;23.364;2023-09-19T02:48:15;10.80;;;6.07;;
28625;SDS011;18905;42.668;23.364;2023-09-19T02:50:41;14.70;;;6.15;;
28625;SDS011;18905;42.668;23.364;2023-09-19T02:53:07;16.98;;;6.07;;
28625;SDS011;18905;42.668;23.364;2023-09-19T02:55:33;11.60;;;6.20;;
28625;SDS011;18905;42.668;23.364;2023-09-19T02:57:59;11.02;;;5.53;;
28625;SDS011;18905;42.668;23.364;2023-09-19T03:00:25;9.23;;;5.80;;
28625;SDS011;18905;42.668;23.364;2023-09-19T03:02:55;9.68;;;5.00;;
28625;SDS011;18905;42.668;23.364;2023-09-19T03:05:22;10.35;;;5.45;;
28625;SDS011;18905;42.668;23.364;2023-09-19T03:07:51;11.20;;;5.57;;
28625;SDS011;18905;42.668;23.364;2023-09-19T03:10:23;12.32;;;5.40;;
28625;SDS011;18905;42.668;23.364;2023-09-19T03:12:49;7.22;;;5.32;;
28625;SDS011;18905;42.668;23.364;2023-09-19T03:15:15;10.10;;;5.32;;
28625;SDS011;18905;42.668;23.364;2023-09-19T03:17:43;10.63;;;5.60;;
28625;SDS011;18905;42.668;23.364;2023-09-19T03:20:09;11.82;;;6.38;;
28625;SDS011;18905;42.668;23.364;2023-09-19T03:22:37;7.40;;;5.18;;
28625;SDS011;18905;42.668;23.364;2023-09-19T03:25:03;14.18;;;6.35;;
28625;SDS011;18905;42.668;23.364;2023-09-19T03:27:33;9.27;;;6.55;;
28625;SDS011;18905;42.668;23.364;2023-09-19T03:30:02;12.60;;;6.10;;
28625;SDS011;18905;42.668;23.364;2023-09-19T03:32:32;9.93;;;6.43;;
28625;SDS011;18905;42.668;23.364;2023-09-19T03:34:57;13.02;;;6.47;;
28625;SDS011;18905;42.668;23.364;2023-09-19T03:37:23;11.93;;;6.88;;
28625;SDS011;18905;42.668;23.364;2023-09-19T03:39:48;12.35;;;6.40;;
28625;SDS011;18905;42.668;23.364;2023-09-19T03:42:14;13.02;;;6.25;;
28625;SDS011;18905;42.668;23.364;2023-09-19T03:44:39;10.13;;;6.78;;
28625;SDS011;18905;42.668;23.364;2023-09-19T03:47:05;14.55;;;6.57;;
28625;SDS011;18905;42.668;23.364;2023-09-19T03:49:32;10.20;;;5.95;;
28625;SDS011;18905;42.668;23.364;2023-09-19T03:51:57;12.50;;;6.70;;
28625;SDS011;18905;42.668;23.364;2023-09-19T03:54:22;9.10;;;5.90;;
28625;SDS011;18905;42.668;23.364;2023-09-19T03:56:48;10.02;;;6.47;;
28625;SDS011;18905;42.668;23.364;2023-09-19T03:59:13;8.45;;;5.88;;
28625;SDS011;18905;42.668;23.364;2023-09-19T04:01:38;19.33;;;6.95;;
28625;SDS011;18905;42.668;23.364;2023-09-19T04:04:04;9.70;;;6.28;;
28625;SDS011;18905;42.668;23.364;2023-09-19T04:06:36;9.63;;;6.28;;
28625;SDS011;18905;42.668;23.364;2023-09-19T04:09:02;15.45;;;5.97;;
28625;SDS011;18905;42.668;23.364;2023-09-19T04:11:28;11.65;;;5.97;;
28625;SDS011;18905;42.668;23.364;2023-09-19T04:13:57;36.67;;;7.22;;
28625;SDS011;18905;42.668;23.364;2023-09-19T04:16:23;12.13;;;6.32;;
28625;SDS011;18905;42.668;23.364;2023-09-19T04:18:48;17.95;;;7.38;;
28625;SDS011;18905;42.668;23.364;2023-09-19T04:21:13;16.75;;;6.63;;
28625;SDS011;18905;42.668;23.364;2023-09-19T04:23:39;20.92;;;6.88;;
28625;SDS011;18905;42.668;23.364;2023-09-19T04:26:04;10.63;;;5.78;;
28625;SDS011;18905;42.668;23.364;2023-09-19T04:28:30;13.07;;;5.53;;
28625;SDS011;18905;42.668;23.364;2023-09-19T04:30:56;11.75;;;6.47;;
28625;SDS011;18905;42.668;23.364;2023-09-19T04:33:23;9.57;;;5.05;;
28625;SDS011;18905;42.668;23.364;2023-09-19T04:35:50;8.45;;;5.38;;
28625;SDS011;18905;42.668;23.364;2023-09-19T04:38:16;11.43;;;5.50;;
28625;SDS011;18905;42.668;23.364;2023-09-19T04:40:43;12.75;;;6.10;;
28625;SDS011;18905;42.668;23.364;2023-09-19T04:43:09;11.30;;;5.53;;
28625;SDS011;18905;42.668;23.364;2023-09-19T04:45:34;12.63;;;6.22;;
28625;SDS011;18905;42.668;23.364;2023-09-19T04:48:00;14.95;;;6.32;;
28625;SDS011;18905;42.668;23.364;2023-09-19T04:50:28;9.57;;;6.15;;
28625;SDS011;18905;42.668;23.364;2023-09-19T04:52:54;15.85;;;6.90;;
28625;SDS011;18905;42.668;23.364;2023-09-19T04:55:20;12.63;;;6.55;;
28625;SDS011;18905;42.668;23.364;2023-09-19T04:57:46;19.80;;;6.57;;
28625;SDS011;18905;42.668;23.364;2023-09-19T05:00:13;29.48;;;7.72;;
28625;SDS011;18905;42.668;23.364;2023-09-19T05:02:48;24.88;;;7.28;;
28625;SDS011;18905;42.668;23.364;2023-09-19T05:05:16;21.42;;;7.13;;
28625;SDS011;18905;42.668;23.364;2023-09-19T05:07:45;10.82;;;6.88;;
28625;SDS011;18905;42.668;23.364;2023-09-19T05:10:11;16.15;;;7.43;;
28625;SDS011;18905;42.668;23.364;2023-09-19T05:12:37;16.40;;;8.27;;
28625;SDS011;18905;42.668;23.364;2023-09-19T05:15:06;17.85;;;7.78;;
28625;SDS011;18905;42.668;23.364;2023-09-19T05:17:33;22.88;;;8.02;;
28625;SDS011;18905;42.668;23.364;2023-09-19T05:19:59;12.48;;;8.10;;
28625;SDS011;18905;42.668;23.364;2023-09-19T05:22:43;18.00;;;9.45;;
28625;SDS011;18905;42.668;23.364;2023-09-19T05:25:11;33.35;;;9.95;;
28625;SDS011;18905;42.668;23.364;2023-09-19T05:27:41;18.00;;;8.85;;
28625;SDS011;18905;42.668;23.364;2023-09-19T05:30:10;15.07;;;8.30;;
28625;SDS011;18905;42.668;23.364;2023-09-19T05:32:36;13.05;;;8.30;;
28625;SDS011;18905;42.668;23.364;2023-09-19T05:35:01;24.25;;;9.15;;
28625;SDS011;18905;42.668;23.364;2023-09-19T05:37:27;21.67;;;8.23;;
28625;SDS011;18905;42.668;23.364;2023-09-19T05:39:54;14.52;;;7.28;;
28625;SDS011;18905;42.668;23.364;2023-09-19T05:42:19;13.50;;;7.20;;
28625;SDS011;18905;42.668;23.364;2023-09-19T05:44:45;10.25;;;6.70;;
28625;SDS011;18905;42.668;23.364;2023-09-19T05:47:10;9.40;;;5.85;;
28625;SDS011;18905;42.668;23.364;2023-09-19T05:49:35;11.52;;;5.28;;
28625;SDS011;18905;42.668;23.364;2023-09-19T05:52:06;11.75;;;5.95;;
28625;SDS011;18905;42.668;23.364;2023-09-19T05:54:32;10.48;;;5.85;;
28625;SDS011;18905;42.668;23.364;2023-09-19T05:56:59;8.48;;;4.88;;
28625;SDS011;18905;42.668;23.364;2023-09-19T05:59:27;11.23;;;5.57;;
28625;SDS011;18905;42.668;23.364;2023-09-19T06:01:52;7.82;;;5.13;;
28625;SDS011;18905;42.668;23.364;2023-09-19T06:04:18;12.57;;;5.50;;
28625;SDS011;18905;42.668;23.364;2023-09-19T06:06:44;15.27;;;5.35;;
28625;SDS011;18905;42.668;23.364;2023-09-19T06:09:10;10.90;;;5.22;;
28625;SDS011;18905;42.668;23.364;2023-09-19T06:11:35;10.48;;;5.28;;
28625;SDS011;18905;42.668;23.364;2023-09-19T06:14:01;12.65;;;4.93;;
28625;SDS011;18905;42.668;23.364;2023-09-19T06:16:30;9.48;;;4.80;;
28625;SDS011;18905;42.668;23.364;2023-09-19T06:18:58;11.20;;;5.13;;
28625;SDS011;18905;42.668;23.364;2023-09-19T06:21:25;8.45;;;5.30;;
28625;SDS011;18905;42.668;23.364;2023-09-19T06:23:51;11.70;;;5.57;;
28625;SDS011;18905;42.668;23.364;2023-09-19T06:26:17;8.82;;;5.15;;
28625;SDS011;18905;42.668;23.364;2023-09-19T06:28:42;16.85;;;5.20;;
28625;SDS011;18905;42.668;23.364;2023-09-19T06:31:09;10.07;;;5.22;;
28625;SDS011;18905;42.668;23.364;2023-09-19T06:33:38;7.15;;;4.93;;
28625;SDS011;18905;42.668;23.364;2023-09-19T06:36:04;8.43;;;4.97;;
28625;SDS011;18905;42.668;23.364;2023-09-19T06:38:30;14.70;;;5.75;;
28625;SDS011;18905;42.668;23.364;2023-09-19T06:40:58;10.25;;;5.18;;
28625;SDS011;18905;42.668;23.364;2023-09-19T06:43:23;14.65;;;5.85;;
28625;SDS011;18905;42.668;23.364;2023-09-19T06:45:49;8.18;;;5.15;;
28625;SDS011;18905;42.668;23.364;2023-09-19T06:48:15;36.30;;;7.07;;
28625;SDS011;18905;42.668;23.364;2023-09-19T06:50:40;19.55;;;5.47;;
28625;SDS011;18905;42.668;23.364;2023-09-19T06:53:06;11.63;;;5.70;;
28625;SDS011;18905;42.668;23.364;2023-09-19T06:55:32;14.05;;;5.85;;
28625;SDS011;18905;42.668;23.364;2023-09-19T06:57:57;7.82;;;4.70;;
28625;SDS011;18905;42.668;23.364;2023-09-19T07:00:23;8.98;;;4.97;;
28625;SDS011;18905;42.668;23.364;2023-09-19T07:03:02;12.25;;;5.25;;
28625;SDS011;18905;42.668;23.364;2023-09-19T07:05:29;9.30;;;4.30;;
28625;SDS011;18905;42.668;23.364;2023-09-19T07:07:56;9.05;;;4.97;;
28625;SDS011;18905;42.668;23.364;2023-09-19T07:10:23;14.07;;;4.85;;
28625;SDS011;18905;42.668;23.364;2023-09-19T07:12:57;11.20;;;4.97;;
28625;SDS011;18905;42.668;23.364;2023-09-19T07:15:26;13.02;;;6.57;;
28625;SDS011;18905;42.668;23.364;2023-09-19T07:17:52;20.77;;;6.32;;
28625;SDS011;18905;42.668;23.364;2023-09-19T07:20:21;12.00;;;5.70;;
28625;SDS011;18905;42.668;23.364;2023-09-19T07:22:48;11.98;;;4.57;;
28625;SDS011;18905;42.668;23.364;2023-09-19T07:25:15;11.05;;;4.70;;
28625;SDS011;18905;42.668;23.364;2023-09-19T07:27:41;10.48;;;4.90;;
28625;SDS011;18905;42.668;23.364;2023-09-19T07:30:07;12.55;;;5.15;;
28625;SDS011;18905;42.668;23.364;2023-09-19T07:32:34;13.30;;;5.20;;
28625;SDS011;18905;42.668;23.364;2023-09-19T07:35:01;10.55;;;4.63;;
28625;SDS011;18905;42.668;23.364;2023-09-19T07:37:27;14.15;;;5.18;;
28625;SDS011;18905;42.668;23.364;2023-09-19T07:39:54;9.70;;;5.18;;
28625;SDS011;18905;42.668;23.364;2023-09-19T07:42:19;9.50;;;4.88;;
28625;SDS011;18905;42.668;23.364;2023-09-19T07:44:45;15.50;;;4.60;;
28625;SDS011;18905;42.668;23.364;2023-09-19T07:47:15;8.70;;;5.38;;
28625;SDS011;18905;42.668;23.364;2023-09-19T07:49:41;16.45;;;4.93;;
28625;SDS011;18905;42.668;23.364;2023-09-19T07:52:07;16.60;;;5.45;;
28625;SDS011;18905;42.668;23.364;2023-09-19T07:54:34;9.90;;;5.13;;
28625;SDS011;18905;42.668;23.364;2023-09-19T07:57:00;14.32;;;5.82;;
28625;SDS011;18905;42.668;23.364;2023-09-19T07:59:26;9.20;;;4.78;;
28625;SDS011;18905;42.668;23.364;2023-09-19T08:01:52;12.00;;;5.75;;
28625;SDS011;18905;42.668;23.364;2023-09-19T08:04:18;7.63;;;4.80;;
28625;SDS011;18905;42.668;23.364;2023-09-19T08:06:44;8.82;;;4.90;;
28625;SDS011;18905;42.668;23.364;2023-09-19T08:09:10;11.85;;;5.55;;
28625;SDS011;18905;42.668;23.364;2023-09-19T08:11:37;11.65;;;5.32;;
28625;SDS011;18905;42.668;23.364;2023-09-19T08:14:04;10.40;;;5.38;;
28625;SDS011;18905;42.668;23.364;2023-09-19T08:16:31;11.48;;;5.05;;
28625;SDS011;18905;42.668;23.364;2023-09-19T08:18:56;12.95;;;5.57;;
28625;SDS011;18905;42.668;23.364;2023-09-19T08:21:22;10.10;;;5.63;;
28625;SDS011;18905;42.668;23.364;2023-09-19T08:23:49;10.77;;;5.53;;
28625;SDS011;18905;42.668;23.364;2023-09-19T08:26:15;12.27;;;5.05;;
28625;SDS011;18905;42.668;23.364;2023-09-19T08:28:40;11.10;;;5.53;;
28625;SDS011;18905;42.668;23.364;2023-09-19T08:31:06;8.45;;;5.53;;
28625;SDS011;18905;42.668;23.364;2023-09-19T08:33:36;10.43;;;5.53;;
28625;SDS011;18905;42.668;23.364;2023-09-19T08:36:02;11.60;;;5.68;;
28625;SDS011;18905;42.668;23.364;2023-09-19T08:38:33;11.77;;;5.18;;
28625;SDS011;18905;42.668;23.364;2023-09-19T08:41:00;10.38;;;5.50;;
28625;SDS011;18905;42.668;23.364;2023-09-19T08:43:26;8.15;;;5.28;;
28625;SDS011;18905;42.668;23.364;2023-09-19T08:45:58;8.75;;;5.57;;
28625;SDS011;18905;42.668;23.364;2023-09-19T08:48:33;9.18;;;5.35;;
28625;SDS011;18905;42.668;23.364;2023-09-19T08:53:41;8.60;;;5.18;;
28625;SDS011;18905;42.668;23.364;2023-09-19T08:56:14;10.65;;;5.50;;
28625;SDS011;18905;42.668;23.364;2023-09-19T08:58:46;9.43;;;5.10;;
28625;SDS011;18905;42.668;23.364;2023-09-19T09:01:16;14.48;;;4.88;;
28625;SDS011;18905;42.668;23.364;2023-09-19T09:03:49;13.20;;;5.00;;
28625;SDS011;18905;42.668;23.364;2023-09-19T09:06:16;7.60;;;5.35;;
28625;SDS011;18905;42.668;23.364;2023-09-19T09:08:43;10.65;;;5.53;;
28625;SDS011;18905;42.668;23.364;2023-09-19T09:11:10;12.82;;;5.63;;
28625;SDS011;18905;42.668;23.364;2023-09-19T09:13:36;13.10;;;5.80;;
28625;SDS011;18905;42.668;23.364;2023-09-19T09:16:02;8.35;;;4.78;;
28625;SDS011;18905;42.668;23.364;2023-09-19T09:18:28;10.45;;;5.05;;
28625;SDS011;18905;42.668;23.364;2023-09-19T09:20:55;12.80;;;4.78;;
28625;SDS011;18905;42.668;23.364;2023-09-19T09:23:21;8.93;;;5.65;;
28625;SDS011;18905;42.668;23.364;2023-09-19T09:25:50;15.02;;;5.20;;
28625;SDS011;18905;42.668;23.364;2023-09-19T09:28:20;15.40;;;4.78;;
28625;SDS011;18905;42.668;23.364;2023-09-19T09:30:47;9.30;;;5.47;;
28625;SDS011;18905;42.668;23.364;2023-09-19T09:33:13;12.98;;;5.47;;
28625;SDS011;18905;42.668;23.364;2023-09-19T09:35:47;14.43;;;4.70;;
28625;SDS011;18905;42.668;23.364;2023-09-19T09:38:17;7.65;;;4.22;;
28625;SDS011;18905;42.668;23.364;2023-09-19T09:40:47;8.15;;;5.28;;
28625;SDS011;18905;42.668;23.364;2023-09-19T09:46:08;7.82;;;4.80;;
28625;SDS011;18905;42.668;23.364;2023-09-19T09:48:46;9.00;;;4.80;;
28625;SDS011;18905;42.668;23.364;2023-09-19T09:51:32;6.13;;;4.38;;
28625;SDS011;18905;42.668;23.364;2023-09-19T09:54:10;6.55;;;4.40;;
28625;SDS011;18905;42.668;23.364;2023-09-19T10:02:30;12.05;;;4.90;;
28625;SDS011;18905;42.668;23.364;2023-09-19T10:08:11;16.15;;;4.60;;
28625;SDS011;18905;42.668;23.364;2023-09-19T10:10:38;8.05;;;5.13;;
28625;SDS011;18905;42.668;23.364;2023-09-19T10:13:08;8.63;;;4.78;;
28625;SDS011;18905;42.668;23.364;2023-09-19T10:15:37;10.45;;;5.32;;
28625;SDS011;18905;42.668;23.364;2023-09-19T10:18:06;7.95;;;4.38;;
28625;SDS011;18905;42.668;23.364;2023-09-19T10:20:36;11.90;;;4.78;;
28625;SDS011;18905;42.668;23.364;2023-09-19T10:23:07;13.82;;;5.75;;
28625;SDS011;18905;42.668;23.364;2023-09-19T10:25:38;14.85;;;5.32;;
28625;SDS011;18905;42.668;23.364;2023-09-19T10:28:08;9.05;;;4.85;;
28625;SDS011;18905;42.668;23.364;2023-09-19T10:30:40;8.95;;;5.38;;
28625;SDS011;18905;42.668;23.364;2023-09-19T10:33:10;10.13;;;5.38;;
28625;SDS011;18905;42.668;23.364;2023-09-19T10:35:40;13.85;;;5.00;;
28625;SDS011;18905;42.668;23.364;2023-09-19T10:38:11;10.48;;;4.75;;
28625;SDS011;18905;42.668;23.364;2023-09-19T10:40:44;9.38;;;4.88;;
28625;SDS011;18905;42.668;23.364;2023-09-19T10:43:11;10.55;;;4.95;;
28625;SDS011;18905;42.668;23.364;2023-09-19T10:45:42;11.13;;;4.90;;
28625;SDS011;18905;42.668;23.364;2023-09-19T10:48:09;9.32;;;4.93;;
28625;SDS011;18905;42.668;23.364;2023-09-19T10:53:10;12.32;;;4.65;;
28625;SDS011;18905;42.668;23.364;2023-09-19T10:55:37;9.63;;;5.30;;
28625;SDS011;18905;42.668;23.364;2023-09-19T10:58:03;10.18;;;5.20;;
28625;SDS011;18905;42.668;23.364;2023-09-19T11:03:37;11.07;;;4.30;;
28625;SDS011;18905;42.668;23.364;2023-09-19T11:06:12;10.27;;;5.30;;
28625;SDS011;18905;42.668;23.364;2023-09-19T11:08:53;8.05;;;4.95;;
28625;SDS011;18905;42.668;23.364;2023-09-19T11:17:29;9.05;;;4.45;;
28625;SDS011;18905;42.668;23.364;2023-09-19T11:30:31;10.05;;;4.93;;
28625;SDS011;18905;42.668;23.364;2023-09-19T11:33:21;15.32;;;4.75;;
28625;SDS011;18905;42.668;23.364;2023-09-19T11:43:45;6.53;;;5.13;;
28625;SDS011;18905;42.668;23.364;2023-09-19T11:46:11;8.27;;;4.72;;
28625;SDS011;18905;42.668;23.364;2023-09-19T11:48:40;7.53;;;4.60;;
28625;SDS011;18905;42.668;23.364;2023-09-19T11:51:14;8.40;;;5.10;;
28625;SDS011;18905;42.668;23.364;2023-09-19T11:53:45;10.95;;;5.00;;
28625;SDS011;18905;42.668;23.364;2023-09-19T11:56:14;5.85;;;4.53;;
28625;SDS011;18905;42.668;23.364;2023-09-19T11:58:42;12.43;;;5.25;;
28625;SDS011;18905;42.668;23.364;2023-09-19T12:01:09;11.95;;;4.85;;
28625;SDS011;18905;42.668;23.364;2023-09-19T12:03:43;9.98;;;5.20;;
28625;SDS011;18905;42.668;23.364;2023-09-19T12:06:13;13.88;;;5.35;;
28625;SDS011;18905;42.668;23.364;2023-09-19T12:08:40;9.68;;;5.72;;
28625;SDS011;18905;42.668;23.364;2023-09-19T12:11:08;12.63;;;5.63;;
28625;SDS011;18905;42.668;23.364;2023-09-19T12:13:41;11.48;;;5.43;;
28625;SDS011;18905;42.668;23.364;2023-09-19T12:16:16;13.07;;;5.20;;
28625;SDS011;18905;42.668;23.364;2023-09-19T12:18:49;10.13;;;4.93;;
28625;SDS011;18905;42.668;23.364;2023-09-19T12:21:28;10.80;;;5.13;;
28625;SDS011;18905;42.668;23.364;2023-09-19T12:26:29;7.57;;;4.90;;
28625;SDS011;18905;42.668;23.364;2023-09-19T12:29:02;8.70;;;4.60;;
28625;SDS011;18905;42.668;23.364;2023-09-19T12:31:30;12.27;;;4.85;;
28625;SDS011;18905;42.668;23.364;2023-09-19T12:34:01;8.32;;;4.57;;
28625;SDS011;18905;42.668;23.364;2023-09-19T12:36:27;6.32;;;4.30;;
28625;SDS011;18905;42.668;23.364;2023-09-19T12:38:55;12.65;;;5.20;;
28625;SDS011;18905;42.668;23.364;2023-09-19T12:41:24;9.85;;;4.72;;
28625;SDS011;18905;42.668;23.364;2023-09-19T12:43:51;8.68;;;4.65;;
28625;SDS011;18905;42.668;23.364;2023-09-19T12:46:20;6.95;;;4.68;;
28625;SDS011;18905;42.668;23.364;2023-09-19T12:48:51;8.48;;;4.97;;
28625;SDS011;18905;42.668;23.364;2023-09-19T12:51:47;6.57;;;4.85;;
28625;SDS011;18905;42.668;23.364;2023-09-19T12:54:14;5.60;;;4.65;;
28625;SDS011;18905;42.668;23.364;2023-09-19T12:56:43;8.50;;;5.03;;
28625;SDS011;18905;42.668;23.364;2023-09-19T12:59:09;6.30;;;4.78;;
28625;SDS011;18905;42.668;23.364;2023-09-19T13:01:38;9.23;;;4.75;;
28625;SDS011;18905;42.668;23.364;2023-09-19T13:06:51;6.97;;;4.72;;
28625;SDS011;18905;42.668;23.364;2023-09-19T13:09:18;6.22;;;4.95;;
28625;SDS011;18905;42.668;23.364;2023-09-19T13:11:53;8.85;;;5.30;;
28625;SDS011;18905;42.668;23.364;2023-09-19T13:14:26;11.90;;;5.00;;
28625;SDS011;18905;42.668;23.364;2023-09-19T13:17:06;10.95;;;4.63;;
28625;SDS011;18905;42.668;23.364;2023-09-19T13:19:48;6.50;;;4.70;;
28625;SDS011;18905;42.668;23.364;2023-09-19T13:25:15;9.73;;;5.65;;
28625;SDS011;18905;42.668;23.364;2023-09-19T13:27:43;8.25;;;5.03;;
28625;SDS011;18905;42.668;23.364;2023-09-19T13:30:16;8.98;;;5.07;;
28625;SDS011;18905;42.668;23.364;2023-09-19T13:32:42;8.00;;;4.80;;
28625;SDS011;18905;42.668;23.364;2023-09-19T13:35:08;9.88;;;4.85;;
28625;SDS011;18905;42.668;23.364;2023-09-19T13:37:38;8.07;;;5.18;;
28625;SDS011;18905;42.668;23.364;2023-09-19T13:40:08;9.68;;;5.10;;
28625;SDS011;18905;42.668;23.364;2023-09-19T13:42:34;8.70;;;4.90;;
28625;SDS011;18905;42.668;23.364;2023-09-19T13:45:01;7.35;;;4.90;;
28625;SDS011;18905;42.668;23.364;2023-09-19T13:47:30;7.07;;;5.07;;
28625;SDS011;18905;42.668;23.364;2023-09-19T13:49:57;11.15;;;5.65;;
28625;SDS011;18905;42.668;23.364;2023-09-19T13:52:23;6.93;;;4.95;;
28625;SDS011;18905;42.668;23.364;2023-09-19T13:54:51;8.90;;;5.30;;
28625;SDS011;18905;42.668;23.364;2023-09-19T13:57:18;12.35;;;4.90;;
28625;SDS011;18905;42.668;23.364;2023-09-19T13:59:43;12.70;;;4.70;;
28625;SDS011;18905;42.668;23.364;2023-09-19T14:02:09;9.27;;;5.38;;
28625;SDS011;18905;42.668;23.364;2023-09-19T14:04:34;8.25;;;5.28;;
28625;SDS011;18905;42.668;23.364;2023-09-19T14:07:00;12.18;;;5.55;;
28625;SDS011;18905;42.668;23.364;2023-09-19T14:09:26;7.32;;;5.00;;
28625;SDS011;18905;42.668;23.364;2023-09-19T14:11:52;9.82;;;4.95;;
28625;SDS011;18905;42.668;23.364;2023-09-19T14:14:18;6.90;;;5.20;;
28625;SDS011;18905;42.668;23.364;2023-09-19T14:16:45;8.82;;;5.07;;
28625;SDS011;18905;42.668;23.364;2023-09-19T14:19:11;8.25;;;5.30;;
28625;SDS011;18905;42.668;23.364;2023-09-19T14:21:36;11.35;;;4.78;;
28625;SDS011;18905;42.668;23.364;2023-09-19T14:24:04;11.27;;;5.03;;
28625;SDS011;18905;42.668;23.364;2023-09-19T14:26:31;13.25;;;5.65;;
28625;SDS011;18905;42.668;23.364;2023-09-19T14:28:56;10.52;;;6.25;;
28625;SDS011;18905;42.668;23.364;2023-09-19T14:31:22;8.25;;;5.25;;
28625;SDS011;18905;42.668;23.364;2023-09-19T14:33:52;9.77;;;5.22;;
28625;SDS011;18905;42.668;23.364;2023-09-19T14:36:21;9.07;;;5.43;;
28625;SDS011;18905;42.668;23.364;2023-09-19T14:38:47;9.13;;;5.70;;
28625;SDS011;18905;42.668;23.364;2023-09-19T14:41:13;12.20;;;5.68;;
28625;SDS011;18905;42.668;23.364;2023-09-19T14:43:38;7.70;;;5.00;;
28625;SDS011;18905;42.668;23.364;2023-09-19T14:46:04;9.02;;;5.30;;
28625;SDS011;18905;42.668;23.364;2023-09-19T14:48:32;7.30;;;5.53;;
28625;SDS011;18905;42.668;23.364;2023-09-19T14:51:02;9.23;;;5.50;;
28625;SDS011;18905;42.668;23.364;2023-09-19T14:53:29;10.15;;;5.22;;
28625;SDS011;18905;42.668;23.364;2023-09-19T14:55:55;9.48;;;5.40;;
28625;SDS011;18905;42.668;23.364;2023-09-19T14:58:21;7.70;;;4.90;;
28625;SDS011;18905;42.668;23.364;2023-09-19T15:00:47;8.75;;;5.40;;
28625;SDS011;18905;42.668;23.364;2023-09-19T15:03:12;6.32;;;5.13;;
28625;SDS011;18905;42.668;23.364;2023-09-19T15:05:38;9.23;;;5.28;;
28625;SDS011;18905;42.668;23.364;2023-09-19T15:08:04;7.13;;;4.90;;
28625;SDS011;18905;42.668;23.364;2023-09-19T15:10:30;14.70;;;5.57;;
28625;SDS011;18905;42.668;23.364;2023-09-19T15:12:56;9.82;;;5.95;;
28625;SDS011;18905;42.668;23.364;2023-09-19T15:15:21;13.65;;;5.30;;
28625;SDS011;18905;42.668;23.364;2023-09-19T15:17:47;12.07;;;5.40;;
28625;SDS011;18905;42.668;23.364;2023-09-19T15:20:12;7.57;;;5.72;;
28625;SDS011;18905;42.668;23.364;2023-09-19T15:22:39;9.00;;;5.63;;
28625;SDS011;18905;42.668;23.364;2023-09-19T15:25:04;14.75;;;6.20;;
28625;SDS011;18905;42.668;23.364;2023-09-19T15:27:31;9.25;;;5.50;;
28625;SDS011;18905;42.668;23.364;2023-09-19T15:29:57;10.65;;;5.90;;
28625;SDS011;18905;42.668;23.364;2023-09-19T15:32:24;9.27;;;6.30;;
28625;SDS011;18905;42.668;23.364;2023-09-19T15:34:50;17.00;;;6.28;;
28625;SDS011;18905;42.668;23.364;2023-09-19T15:37:15;11.60;;;6.00;;
28625;SDS011;18905;42.668;23.364;2023-09-19T15:39:41;8.18;;;5.93;;
28625;SDS011;18905;42.668;23.364;2023-09-19T15:42:06;12.00;;;6.22;;
28625;SDS011;18905;42.668;23.364;2023-09-19T15:44:32;9.60;;;5.35;;
28625;SDS011;18905;42.668;23.364;2023-09-19T15:47:03;12.93;;;6.25;;